createdAt,value
2022-12-25T00:00:06.277Z,30.00
2022-12-25T00:01:06.210Z,25.24
2022-12-25T00:02:06.176Z,29.38
2022-12-25T00:03:06.234Z,30.06
2022-12-25T00:04:06.242Z,32.85
2022-12-25T00:05:06.131Z,31.12
2022-12-25T00:06:06.114Z,30.16
2022-12-25T00:07:06.137Z,28.28
2022-12-25T00:08:06.114Z,26.50
2022-12-25T00:09:06.127Z,28.42
2022-12-25T00:10:06.091Z,27.26
2022-12-25T00:11:06.077Z,33.29
2022-12-25T00:12:06.098Z,26.82
2022-12-25T00:13:06.067Z,30.16
2022-12-25T00:14:06.059Z,26.30
2022-12-25T00:15:06.070Z,26.77
2022-12-25T00:16:06.108Z,26.34
2022-12-25T00:17:06.017Z,28.71
2022-12-25T00:18:06.031Z,28.73
2022-12-25T00:19:06.029Z,29.25
2022-12-25T00:20:05.999Z,29.72
2022-12-25T00:21:06.038Z,25.74
2022-12-25T00:22:05.999Z,27.85
2022-12-25T00:23:05.972Z,28.82
2022-12-25T00:24:06.002Z,27.88
2022-12-25T00:25:05.955Z,25.00
2022-12-25T00:26:05.965Z,28.12
2022-12-25T00:27:05.935Z,26.51
2022-12-25T00:28:05.942Z,31.47
2022-12-25T00:29:05.956Z,29.43
2022-12-25T00:30:05.943Z,30.44
2022-12-25T00:31:05.905Z,29.76
2022-12-25T00:32:05.894Z,29.42
2022-12-25T00:33:05.879Z,27.62
2022-12-25T00:34:05.883Z,28.64
2022-12-25T00:35:05.867Z,26.16
2022-12-25T00:36:05.888Z,29.09
2022-12-25T00:37:05.848Z,29.13
2022-12-25T00:38:05.829Z,30.38
2022-12-25T00:39:05.852Z,25.77
2022-12-25T00:40:05.818Z,25.00
2022-12-25T00:41:05.835Z,29.21
2022-12-25T00:42:05.808Z,29.09
2022-12-25T00:43:05.793Z,27.81
2022-12-25T00:44:05.800Z,28.45
2022-12-25T00:45:05.790Z,28.52
2022-12-25T00:46:05.864Z,29.66
2022-12-25T00:47:05.805Z,28.65
2022-12-25T00:48:05.745Z,27.84
2022-12-25T00:49:05.750Z,28.35
2022-12-25T00:50:05.748Z,27.95
2022-12-25T00:51:05.750Z,27.01
2022-12-25T00:52:05.725Z,27.98
2022-12-25T00:53:05.723Z,28.98
2022-12-25T00:54:05.721Z,27.17
2022-12-25T00:55:05.687Z,29.14
2022-12-25T00:56:05.691Z,30.47
2022-12-25T00:57:05.712Z,27.49
2022-12-25T00:58:05.675Z,29.70
2022-12-25T00:59:05.642Z,27.85
2022-12-25T01:00:05.641Z,27.60
2022-12-25T01:01:05.676Z,27.28
2022-12-25T01:02:05.750Z,29.02
2022-12-25T01:03:05.694Z,29.00
2022-12-25T01:04:05.601Z,31.10
2022-12-25T01:05:05.596Z,29.29
2022-12-25T01:06:05.595Z,29.14
2022-12-25T01:07:05.606Z,32.35
2022-12-25T01:08:05.570Z,28.48
2022-12-25T01:09:05.561Z,27.29
2022-12-25T01:10:05.551Z,30.23
2022-12-25T01:11:05.538Z,28.48
2022-12-25T01:12:05.532Z,30.32
2022-12-25T01:13:05.559Z,31.80
2022-12-25T01:14:05.514Z,28.56
2022-12-25T01:15:05.506Z,27.72
2022-12-25T01:16:05.514Z,28.35
2022-12-25T01:17:05.495Z,29.77
2022-12-25T01:18:07.902Z,27.95
2022-12-25T01:19:05.489Z,32.08
2022-12-25T01:20:05.467Z,28.85
2022-12-25T01:21:05.462Z,30.44
2022-12-25T01:22:05.440Z,32.26
2022-12-25T01:23:05.500Z,30.50
2022-12-25T01:24:05.432Z,27.41
2022-12-25T01:25:05.421Z,29.81
2022-12-25T01:26:05.805Z,33.97
2022-12-25T01:27:05.412Z,30.30
2022-12-25T01:28:05.412Z,30.22
2022-12-25T01:29:05.384Z,28.47
2022-12-25T01:30:05.392Z,29.17
2022-12-25T01:31:05.369Z,32.51
2022-12-25T01:32:05.417Z,32.47
2022-12-25T01:33:05.369Z,33.43
2022-12-25T01:34:05.376Z,33.73
2022-12-25T01:35:05.361Z,33.76
2022-12-25T01:36:05.321Z,32.57
2022-12-25T01:37:05.338Z,32.80
2022-12-25T01:38:05.306Z,31.77
2022-12-25T01:39:05.322Z,34.47
2022-12-25T01:40:05.286Z,33.59
2022-12-25T01:41:05.278Z,33.28
2022-12-25T01:42:05.281Z,36.64
2022-12-25T01:43:05.251Z,32.27
2022-12-25T01:44:05.289Z,29.67
2022-12-25T01:45:05.234Z,30.27
2022-12-25T01:46:05.299Z,36.07
2022-12-25T01:47:05.224Z,32.01
2022-12-25T01:48:05.223Z,35.88
2022-12-25T01:49:05.228Z,34.77
2022-12-25T01:50:05.197Z,35.89
2022-12-25T01:51:05.231Z,33.42
2022-12-25T01:52:05.168Z,35.39
2022-12-25T01:53:05.162Z,33.96
2022-12-25T01:54:05.176Z,32.80
2022-12-25T01:55:05.169Z,35.77
2022-12-25T01:56:05.154Z,34.04
2022-12-25T01:57:05.135Z,32.87
2022-12-25T01:58:05.122Z,35.89
2022-12-25T01:59:05.130Z,34.33
2022-12-25T02:00:05.097Z,34.75
2022-12-25T02:01:05.152Z,32.42
2022-12-25T02:02:05.314Z,34.64
2022-12-25T02:03:05.160Z,32.26
2022-12-25T02:04:05.087Z,32.41
2022-12-25T02:05:05.055Z,34.07
2022-12-25T02:06:05.063Z,33.46
2022-12-25T02:07:05.048Z,30.15
2022-12-25T02:08:05.042Z,28.75
2022-12-25T02:09:05.021Z,28.12
2022-12-25T02:10:05.008Z,30.46
2022-12-25T02:11:05.031Z,33.88
2022-12-25T02:12:05.007Z,28.85
2022-12-25T02:13:04.983Z,28.39
2022-12-25T02:14:04.971Z,31.66
2022-12-25T02:15:06.221Z,36.02
2022-12-25T02:16:04.999Z,31.11
2022-12-25T02:17:05.061Z,36.44
2022-12-25T02:18:04.955Z,36.50
2022-12-25T02:19:04.955Z,31.15
2022-12-25T02:20:04.954Z,30.37
2022-12-25T02:21:04.939Z,33.85
2022-12-25T02:22:04.902Z,30.19
2022-12-25T02:23:04.901Z,31.65
2022-12-25T02:24:04.904Z,31.02
2022-12-25T02:25:04.913Z,33.44
2022-12-25T02:26:04.873Z,27.98
2022-12-25T02:27:04.899Z,31.22
2022-12-25T02:28:04.930Z,28.81
2022-12-25T02:29:04.871Z,30.02
2022-12-25T02:30:04.858Z,29.90
2022-12-25T02:31:04.864Z,29.21
2022-12-25T02:32:04.888Z,32.45
2022-12-25T02:33:04.802Z,30.58
2022-12-25T02:34:04.842Z,29.72
2022-12-25T02:35:04.779Z,31.62
2022-12-25T02:36:04.833Z,28.80
2022-12-25T02:37:04.776Z,30.20
2022-12-25T02:38:04.766Z,27.45
2022-12-25T02:39:04.767Z,30.55
2022-12-25T02:40:04.739Z,32.00
2022-12-25T02:41:04.741Z,30.92
2022-12-25T02:42:04.781Z,32.87
2022-12-25T02:43:04.713Z,32.36
2022-12-25T02:44:04.728Z,32.15
2022-12-25T02:45:04.694Z,33.38
2022-12-25T02:46:04.742Z,31.31
2022-12-25T02:47:04.711Z,32.84
2022-12-25T02:48:04.670Z,31.00
2022-12-25T02:49:04.657Z,30.68
2022-12-25T02:50:04.698Z,31.37
2022-12-25T02:51:04.643Z,33.67
2022-12-25T02:52:04.639Z,32.47
2022-12-25T02:53:04.677Z,33.09
2022-12-25T02:54:04.627Z,32.39
2022-12-25T02:55:04.609Z,32.13
2022-12-25T02:56:04.615Z,33.33
2022-12-25T02:57:04.594Z,33.69
2022-12-25T02:58:04.618Z,37.22
2022-12-25T02:59:04.575Z,35.09
2022-12-25T03:00:04.570Z,33.08
2022-12-25T03:01:04.628Z,32.91
2022-12-25T03:02:04.628Z,31.02
2022-12-25T03:03:04.580Z,30.28
2022-12-25T03:04:04.573Z,36.13
2022-12-25T03:05:04.521Z,32.88
2022-12-25T03:06:04.518Z,32.31
2022-12-25T03:07:04.517Z,33.45
2022-12-25T03:08:04.502Z,34.71
2022-12-25T03:09:04.505Z,30.86
2022-12-25T03:10:04.467Z,33.88
2022-12-25T03:11:04.478Z,33.43
2022-12-25T03:12:04.718Z,41.14
2022-12-25T03:13:04.687Z,34.99
2022-12-25T03:14:04.696Z,33.19
2022-12-25T03:15:04.662Z,34.81
2022-12-25T03:16:04.659Z,33.12
2022-12-25T03:17:04.660Z,37.00
2022-12-25T03:18:04.660Z,33.75
2022-12-25T03:19:04.749Z,35.03
2022-12-25T03:20:04.746Z,34.61
2022-12-25T03:21:04.807Z,37.34
2022-12-25T03:22:04.880Z,44.35
2022-12-25T03:23:04.912Z,36.06
2022-12-25T03:24:04.948Z,38.26
2022-12-25T03:25:05.026Z,33.66
2022-12-25T03:26:05.048Z,33.14
2022-12-25T03:27:05.093Z,36.99
2022-12-25T03:28:05.162Z,32.73
2022-12-25T03:29:05.195Z,34.27
2022-12-25T03:30:05.248Z,32.65
2022-12-25T03:31:05.326Z,32.16
2022-12-25T03:32:05.344Z,30.91
2022-12-25T03:33:17.978Z,34.91
2022-12-25T03:34:06.409Z,35.07
2022-12-25T03:35:06.514Z,35.93
2022-12-25T03:36:05.364Z,35.48
2022-12-25T03:37:05.356Z,35.81
2022-12-25T03:38:05.370Z,36.43
2022-12-25T03:39:05.375Z,36.82
2022-12-25T03:40:05.323Z,35.10
2022-12-25T03:41:05.326Z,37.33
2022-12-25T03:42:05.312Z,35.36
2022-12-25T03:43:05.305Z,37.47
2022-12-25T03:44:05.326Z,39.28
2022-12-25T03:45:05.287Z,34.42
2022-12-25T03:46:05.353Z,35.00
2022-12-25T03:47:05.286Z,35.97
2022-12-25T03:48:05.265Z,35.67
2022-12-25T03:49:05.270Z,32.56
2022-12-25T03:50:05.242Z,32.77
2022-12-25T03:51:05.266Z,36.80
2022-12-25T03:52:05.247Z,33.87
2022-12-25T03:53:05.212Z,34.26
2022-12-25T03:54:05.230Z,34.92
2022-12-25T03:55:05.197Z,37.32
2022-12-25T03:56:05.220Z,34.03
2022-12-25T03:57:05.173Z,41.50
2022-12-25T03:58:05.182Z,32.65
2022-12-25T03:59:05.194Z,40.84
2022-12-25T04:00:05.149Z,34.86
2022-12-25T04:01:05.154Z,32.89
2022-12-25T04:02:05.279Z,37.59
2022-12-25T04:03:05.137Z,35.54
2022-12-25T04:04:05.123Z,35.87
2022-12-25T04:05:05.261Z,37.01
2022-12-25T04:06:05.094Z,40.41
2022-12-25T04:07:05.099Z,36.74
2022-12-25T04:08:05.087Z,38.16
2022-12-25T04:09:05.094Z,41.21
2022-12-25T04:10:05.086Z,35.08
2022-12-25T04:11:05.056Z,34.09
2022-12-25T04:12:05.038Z,32.93
2022-12-25T04:13:05.047Z,35.51
2022-12-25T04:14:05.031Z,29.87
2022-12-25T04:15:05.039Z,32.23
2022-12-25T04:16:05.077Z,36.61
2022-12-25T04:17:05.007Z,38.49
2022-12-25T04:18:04.985Z,35.41
2022-12-25T04:19:04.987Z,38.87
2022-12-25T04:20:05.002Z,34.46
2022-12-25T04:21:04.977Z,33.48
2022-12-25T04:22:04.963Z,40.43
2022-12-25T04:23:04.947Z,32.62
2022-12-25T04:24:04.968Z,40.24
2022-12-25T04:25:04.949Z,37.22
2022-12-25T04:26:04.921Z,32.79
2022-12-25T04:27:04.916Z,36.58
2022-12-25T04:28:04.903Z,35.94
2022-12-25T04:29:04.913Z,38.77
2022-12-25T04:30:04.915Z,37.76
2022-12-25T04:31:04.938Z,38.33
2022-12-25T04:32:04.863Z,35.37
2022-12-25T04:33:04.885Z,37.22
2022-12-25T04:34:04.914Z,30.10
2022-12-25T04:35:04.940Z,37.11
2022-12-25T04:36:04.843Z,38.41
2022-12-25T04:37:04.839Z,35.77
2022-12-25T04:38:04.819Z,42.88
2022-12-25T04:39:04.802Z,32.87
2022-12-25T04:40:04.812Z,34.30
2022-12-25T04:41:04.794Z,33.39
2022-12-25T04:42:04.796Z,32.60
2022-12-25T04:43:04.789Z,31.50
2022-12-25T04:44:04.771Z,33.96
2022-12-25T04:45:04.754Z,33.26
2022-12-25T04:46:04.787Z,33.61
2022-12-25T04:47:10.906Z,33.24
2022-12-25T04:48:05.747Z,33.39
2022-12-25T04:49:04.710Z,33.42
2022-12-25T04:50:04.724Z,34.27
2022-12-25T04:51:04.699Z,33.40
2022-12-25T04:52:04.678Z,30.72
2022-12-25T04:53:04.706Z,36.51
2022-12-25T04:54:04.668Z,33.41
2022-12-25T04:55:04.652Z,36.82
2022-12-25T04:56:04.655Z,34.46
2022-12-25T04:57:04.689Z,32.04
2022-12-25T04:58:04.659Z,35.79
2022-12-25T04:59:04.622Z,34.93
2022-12-25T05:00:04.616Z,35.45
2022-12-25T05:01:04.630Z,32.83
2022-12-25T05:02:04.712Z,50.88
2022-12-25T05:03:04.669Z,75.76
2022-12-25T05:04:04.571Z,45.00
2022-12-25T05:05:04.576Z,30.79
2022-12-25T05:06:04.559Z,34.35
2022-12-25T05:07:04.577Z,33.86
2022-12-25T05:08:04.568Z,61.47
2022-12-25T05:09:04.528Z,57.69
2022-12-25T05:10:04.562Z,66.60
2022-12-25T05:11:04.581Z,79.73
2022-12-25T05:12:04.512Z,64.98
2022-12-25T05:13:04.565Z,61.05
2022-12-25T05:14:04.508Z,57.61
2022-12-25T05:15:04.529Z,56.35
2022-12-25T05:16:04.551Z,51.85
2022-12-25T05:17:04.463Z,49.05
2022-12-25T05:18:04.491Z,50.96
2022-12-25T05:19:04.466Z,54.85
2022-12-25T05:20:04.433Z,45.07
2022-12-25T05:21:04.442Z,46.76
2022-12-25T05:22:04.424Z,48.38
2022-12-25T05:23:04.403Z,47.78
2022-12-25T05:24:04.431Z,49.15
2022-12-25T05:25:04.420Z,49.27
2022-12-25T05:26:04.382Z,47.99
2022-12-25T05:27:04.363Z,53.27
2022-12-25T05:28:04.359Z,52.16
2022-12-25T05:29:04.377Z,46.29
2022-12-25T05:30:04.368Z,46.26
2022-12-25T05:31:04.409Z,43.77
2022-12-25T05:32:04.350Z,47.12
2022-12-25T05:33:04.381Z,51.27
2022-12-25T05:34:04.314Z,42.86
2022-12-25T05:35:04.306Z,47.43
2022-12-25T05:36:04.295Z,47.49
2022-12-25T05:37:04.284Z,47.37
2022-12-25T05:38:04.305Z,45.04
2022-12-25T05:39:04.273Z,37.89
2022-12-25T05:40:04.271Z,44.57
2022-12-25T05:41:04.242Z,46.13
2022-12-25T05:42:04.268Z,47.63
2022-12-25T05:43:04.262Z,48.42
2022-12-25T05:44:04.221Z,53.52
2022-12-25T05:45:04.243Z,62.06
2022-12-25T05:46:04.217Z,81.95
2022-12-25T05:47:04.380Z,40.85
2022-12-25T05:48:04.257Z,30.47
2022-12-25T05:49:04.220Z,35.17
2022-12-25T05:50:04.160Z,36.09
2022-12-25T05:51:04.217Z,38.09
2022-12-25T05:52:04.199Z,39.49
2022-12-25T05:53:08.053Z,35.20
2022-12-25T05:54:04.126Z,35.63
2022-12-25T05:55:04.137Z,36.40
2022-12-25T05:56:04.159Z,35.41
2022-12-25T05:57:04.106Z,38.12
2022-12-25T05:58:04.094Z,38.92
2022-12-25T05:59:04.091Z,44.93
2022-12-25T06:00:04.086Z,36.89
2022-12-25T06:01:04.069Z,32.66
2022-12-25T06:02:04.140Z,31.55
2022-12-25T06:03:04.205Z,33.86
2022-12-25T06:04:10.174Z,37.12
2022-12-25T06:05:05.069Z,37.31
2022-12-25T06:06:04.033Z,37.33
2022-12-25T06:07:04.014Z,37.02
2022-12-25T06:08:04.010Z,34.35
2022-12-25T06:09:04.021Z,34.32
2022-12-25T06:10:03.978Z,34.62
2022-12-25T06:11:04.007Z,37.37
2022-12-25T06:12:03.967Z,33.60
2022-12-25T06:13:03.960Z,32.97
2022-12-25T06:14:03.978Z,32.77
2022-12-25T06:15:03.946Z,36.21
2022-12-25T06:16:03.957Z,36.21
2022-12-25T06:17:04.202Z,35.06
2022-12-25T06:18:03.910Z,32.44
2022-12-25T06:19:03.901Z,30.56
2022-12-25T06:20:03.913Z,31.08
2022-12-25T06:21:03.915Z,33.65
2022-12-25T06:22:03.878Z,36.83
2022-12-25T06:23:03.871Z,30.67
2022-12-25T06:24:03.871Z,30.91
2022-12-25T06:25:03.856Z,29.94
2022-12-25T06:26:03.867Z,31.81
2022-12-25T06:27:03.831Z,32.79
2022-12-25T06:28:03.827Z,29.90
2022-12-25T06:29:03.808Z,28.65
2022-12-25T06:30:03.812Z,32.45
2022-12-25T06:31:03.914Z,29.30
2022-12-25T06:32:03.892Z,30.02
2022-12-25T06:33:03.780Z,25.39
2022-12-25T06:34:03.786Z,29.49
2022-12-25T06:35:03.757Z,26.14
2022-12-25T06:36:03.788Z,30.51
2022-12-25T06:37:03.750Z,29.48
2022-12-25T06:38:03.753Z,27.71
2022-12-25T06:39:03.720Z,26.69
2022-12-25T06:40:03.712Z,34.13
2022-12-25T06:41:03.745Z,29.54
2022-12-25T06:42:03.697Z,30.06
2022-12-25T06:43:03.687Z,28.46
2022-12-25T06:44:03.834Z,27.47
2022-12-25T06:45:03.675Z,33.80
2022-12-25T06:46:04.085Z,28.44
2022-12-25T06:47:03.658Z,28.84
2022-12-25T06:48:03.651Z,28.83
2022-12-25T06:49:03.642Z,28.85
2022-12-25T06:50:03.621Z,29.72
2022-12-25T06:51:03.643Z,29.84
2022-12-25T06:52:03.602Z,28.58
2022-12-25T06:53:03.597Z,28.52
2022-12-25T06:54:03.608Z,29.13
2022-12-25T06:55:03.584Z,26.06
2022-12-25T06:56:03.658Z,31.39
2022-12-25T06:57:03.713Z,26.59
2022-12-25T06:58:03.750Z,25.91
2022-12-25T06:59:03.785Z,31.63
2022-12-25T07:00:03.868Z,27.25
2022-12-25T07:01:03.941Z,52.51
2022-12-25T07:02:04.032Z,75.80
2022-12-25T07:03:04.100Z,40.44
2022-12-25T07:04:04.039Z,31.70
2022-12-25T07:05:04.094Z,34.03
2022-12-25T07:06:04.144Z,30.05
2022-12-25T07:07:08.776Z,36.35
2022-12-25T07:08:05.186Z,36.49
2022-12-25T07:09:04.171Z,36.39
2022-12-25T07:10:04.167Z,32.87
2022-12-25T07:11:04.184Z,27.11
2022-12-25T07:12:04.160Z,35.23
2022-12-25T07:13:04.169Z,28.00
2022-12-25T07:14:04.132Z,30.90
2022-12-25T07:15:04.108Z,33.31
2022-12-25T07:16:04.161Z,28.90
2022-12-25T07:17:04.127Z,32.81
2022-12-25T07:18:04.092Z,29.93
2022-12-25T07:19:04.079Z,34.00
2022-12-25T07:20:04.089Z,27.32
2022-12-25T07:21:04.075Z,25.00
2022-12-25T07:22:04.080Z,27.98
2022-12-25T07:23:04.072Z,28.94
2022-12-25T07:24:04.043Z,34.50
2022-12-25T07:25:04.024Z,30.71
2022-12-25T07:26:04.021Z,31.35
2022-12-25T07:27:04.017Z,27.52
2022-12-25T07:28:04.052Z,30.14
2022-12-25T07:29:04.007Z,30.25
2022-12-25T07:30:03.998Z,26.73
2022-12-25T07:31:03.991Z,27.77
2022-12-25T07:32:04.053Z,28.44
2022-12-25T07:33:03.966Z,27.48
2022-12-25T07:34:03.957Z,25.80
2022-12-25T07:35:03.942Z,26.94
2022-12-25T07:36:03.955Z,30.29
2022-12-25T07:37:03.930Z,29.33
2022-12-25T07:38:03.922Z,27.05
2022-12-25T07:39:03.910Z,30.22
2022-12-25T07:40:03.897Z,28.12
2022-12-25T07:41:03.911Z,28.19
2022-12-25T07:42:03.888Z,28.80
2022-12-25T07:43:03.865Z,26.73
2022-12-25T07:44:03.874Z,27.02
2022-12-25T07:45:03.870Z,25.08
2022-12-25T07:46:03.932Z,25.17
2022-12-25T07:47:03.834Z,31.23
2022-12-25T07:48:05.873Z,26.57
2022-12-25T07:49:03.818Z,26.74
2022-12-25T07:50:03.801Z,26.98
2022-12-25T07:51:03.820Z,26.69
2022-12-25T07:52:03.784Z,29.24
2022-12-25T07:53:03.800Z,29.19
2022-12-25T07:54:03.772Z,29.33
2022-12-25T07:55:03.755Z,28.93
2022-12-25T07:56:03.783Z,29.98
2022-12-25T07:57:03.749Z,28.55
2022-12-25T07:58:03.727Z,25.00
2022-12-25T07:59:03.735Z,25.40
2022-12-25T08:00:03.727Z,25.59
2022-12-25T08:01:03.854Z,25.41
2022-12-25T08:02:03.942Z,29.76
2022-12-25T08:03:04.071Z,30.54
2022-12-25T08:04:03.774Z,31.80
2022-12-25T08:05:03.666Z,28.36
2022-12-25T08:06:03.669Z,28.10
2022-12-25T08:07:03.716Z,30.47
2022-12-25T08:08:03.651Z,30.30
2022-12-25T08:09:03.641Z,31.51
2022-12-25T08:10:03.727Z,27.32
2022-12-25T08:11:03.626Z,30.18
2022-12-25T08:12:03.627Z,27.46
2022-12-25T08:13:07.637Z,25.35
2022-12-25T08:14:04.605Z,25.70
2022-12-25T08:15:03.586Z,26.97
2022-12-25T08:16:03.585Z,27.11
2022-12-25T08:17:03.665Z,27.66
2022-12-25T08:18:03.596Z,31.08
2022-12-25T08:19:03.552Z,28.28
2022-12-25T08:20:03.537Z,29.04
2022-12-25T08:21:03.550Z,25.00
2022-12-25T08:22:03.551Z,25.77
2022-12-25T08:23:03.516Z,26.87
2022-12-25T08:24:03.529Z,30.05
2022-12-25T08:25:03.515Z,55.08
2022-12-25T08:26:05.487Z,40.14
2022-12-25T08:27:03.465Z,66.66
2022-12-25T08:28:03.484Z,79.64
2022-12-25T08:29:03.484Z,104.36
2022-12-25T08:30:03.457Z,108.99
2022-12-25T08:31:03.475Z,122.57
2022-12-25T08:32:03.426Z,111.33
2022-12-25T08:33:03.430Z,113.83
2022-12-25T08:34:03.448Z,118.19
2022-12-25T08:35:03.457Z,126.42
2022-12-25T08:36:03.530Z,121.52
2022-12-25T08:37:03.568Z,119.79
2022-12-25T08:38:03.632Z,115.64
2022-12-25T08:39:03.719Z,116.63
2022-12-25T08:40:03.869Z,117.84
2022-12-25T08:41:03.786Z,126.12
2022-12-25T08:42:03.808Z,127.78
2022-12-25T08:43:03.863Z,146.89
2022-12-25T08:44:03.932Z,255.52
2022-12-25T08:45:03.956Z,212.63
2022-12-25T08:46:04.111Z,245.23
2022-12-25T08:47:04.064Z,286.76
2022-12-25T08:48:04.111Z,233.82
2022-12-25T08:49:04.204Z,194.38
2022-12-25T08:50:04.198Z,190.70
2022-12-25T08:51:04.261Z,194.66
2022-12-25T08:52:04.440Z,177.97
2022-12-25T08:53:04.461Z,167.59
2022-12-25T08:54:04.525Z,161.98
2022-12-25T08:55:04.611Z,142.12
2022-12-25T08:56:04.621Z,134.38
2022-12-25T08:57:04.708Z,137.45
2022-12-25T08:58:04.702Z,132.18
2022-12-25T08:59:04.842Z,139.52
2022-12-25T09:00:04.851Z,138.28
2022-12-25T09:01:04.968Z,138.85
2022-12-25T09:02:04.983Z,135.36
2022-12-25T09:03:05.095Z,130.97
2022-12-25T09:04:04.866Z,144.42
2022-12-25T09:05:04.954Z,147.61
2022-12-25T09:06:04.942Z,143.55
2022-12-25T09:07:04.927Z,151.69
2022-12-25T09:08:04.930Z,139.46
2022-12-25T09:09:04.934Z,135.85
2022-12-25T09:10:04.898Z,135.44
2022-12-25T09:11:04.962Z,140.19
2022-12-25T09:12:05.015Z,143.50
2022-12-25T09:13:05.055Z,142.06
2022-12-25T09:14:05.185Z,133.40
2022-12-25T09:15:05.388Z,142.45
2022-12-25T09:16:05.519Z,138.02
2022-12-25T09:17:05.332Z,137.28
2022-12-25T09:18:05.361Z,135.11
2022-12-25T09:19:05.434Z,132.52
2022-12-25T09:20:05.443Z,125.67
2022-12-25T09:21:05.383Z,125.39
2022-12-25T09:22:05.474Z,126.73
2022-12-25T09:23:11.619Z,125.35
2022-12-25T09:24:06.495Z,125.61
2022-12-25T09:25:05.477Z,125.41
2022-12-25T09:26:05.614Z,125.31
2022-12-25T09:27:05.580Z,121.31
2022-12-25T09:28:05.428Z,125.95
2022-12-25T09:29:05.431Z,122.29
2022-12-25T09:30:05.368Z,118.29
2022-12-25T09:31:05.515Z,116.33
2022-12-25T09:32:05.161Z,110.73
2022-12-25T09:33:05.185Z,112.67
2022-12-25T09:34:05.154Z,114.82
2022-12-25T09:35:05.263Z,112.69
2022-12-25T09:36:05.153Z,112.87
2022-12-25T09:37:05.130Z,109.98
2022-12-25T09:38:05.105Z,110.25
2022-12-25T09:39:05.119Z,106.79
2022-12-25T09:40:05.147Z,107.68
2022-12-25T09:41:05.251Z,105.98
2022-12-25T09:42:05.214Z,102.96
2022-12-25T09:43:05.271Z,105.47
2022-12-25T09:44:05.321Z,105.58
2022-12-25T09:45:05.355Z,101.12
2022-12-25T09:46:05.484Z,101.69
2022-12-25T09:47:05.463Z,101.66
2022-12-25T09:48:05.509Z,103.67
2022-12-25T09:49:05.581Z,102.66
2022-12-25T09:50:05.603Z,97.65
2022-12-25T09:51:05.652Z,97.26
2022-12-25T09:52:05.697Z,96.08
2022-12-25T09:53:05.757Z,96.12
2022-12-25T09:54:05.821Z,97.06
2022-12-25T09:55:05.961Z,94.40
2022-12-25T09:56:05.913Z,91.87
2022-12-25T09:57:05.949Z,93.10
2022-12-25T09:58:06.003Z,96.01
2022-12-25T09:59:06.052Z,90.20
2022-12-25T10:00:06.136Z,90.13
2022-12-25T10:01:06.181Z,87.03
2022-12-25T10:02:06.376Z,87.88
2022-12-25T10:03:06.665Z,90.37
2022-12-25T10:04:06.254Z,82.61
2022-12-25T10:05:06.243Z,87.33
2022-12-25T10:06:06.225Z,83.72
2022-12-25T10:07:06.214Z,87.23
2022-12-25T10:08:06.262Z,79.46
2022-12-25T10:09:06.209Z,84.51
2022-12-25T10:10:06.192Z,82.10
2022-12-25T10:11:06.225Z,78.92
2022-12-25T10:12:06.271Z,74.45
2022-12-25T10:13:06.381Z,73.28
2022-12-25T10:14:06.388Z,74.43
2022-12-25T10:15:06.422Z,79.29
2022-12-25T10:16:06.530Z,76.33
2022-12-25T10:17:06.530Z,76.51
2022-12-25T10:18:06.602Z,70.26
2022-12-25T10:19:06.629Z,76.98
2022-12-25T10:20:06.674Z,78.22
2022-12-25T10:21:12.621Z,73.80
2022-12-25T10:22:07.716Z,74.02
2022-12-25T10:23:06.820Z,74.06
2022-12-25T10:24:06.758Z,74.12
2022-12-25T10:25:06.699Z,74.74
2022-12-25T10:26:06.680Z,73.88
2022-12-25T10:27:06.705Z,76.60
2022-12-25T10:28:06.666Z,73.60
2022-12-25T10:29:06.699Z,75.21
2022-12-25T10:30:06.639Z,77.24
2022-12-25T10:31:06.685Z,78.00
2022-12-25T10:32:06.630Z,80.96
2022-12-25T10:33:07.537Z,77.96
2022-12-25T10:34:06.611Z,77.52
2022-12-25T10:35:06.617Z,76.51
2022-12-25T10:36:06.612Z,76.39
2022-12-25T10:37:06.605Z,75.11
2022-12-25T10:38:06.571Z,73.25
2022-12-25T10:39:06.583Z,70.99
2022-12-25T10:40:06.558Z,76.28
2022-12-25T10:41:06.582Z,74.29
2022-12-25T10:42:06.624Z,76.85
2022-12-25T10:43:06.669Z,74.33
2022-12-25T10:44:06.792Z,70.69
2022-12-25T10:45:06.806Z,74.20
2022-12-25T10:46:06.857Z,68.32
2022-12-25T10:47:06.897Z,73.70
2022-12-25T10:48:08.008Z,71.02
2022-12-25T10:49:06.931Z,72.78
2022-12-25T10:50:06.892Z,70.11
2022-12-25T10:51:06.892Z,64.01
2022-12-25T10:52:06.937Z,61.92
2022-12-25T10:53:07.038Z,55.03
2022-12-25T10:54:07.127Z,64.68
2022-12-25T10:55:07.091Z,63.28
2022-12-25T10:56:07.212Z,64.36
2022-12-25T10:57:07.185Z,61.72
2022-12-25T10:58:07.252Z,57.08
2022-12-25T10:59:07.282Z,58.83
2022-12-25T11:00:07.349Z,58.00
2022-12-25T11:01:07.384Z,56.56
2022-12-25T11:02:07.555Z,56.80
2022-12-25T11:03:07.724Z,57.13
2022-12-25T11:04:07.601Z,54.47
2022-12-25T11:05:07.593Z,52.25
2022-12-25T11:06:07.663Z,50.74
2022-12-25T11:07:07.707Z,50.09
2022-12-25T11:08:07.820Z,49.11
2022-12-25T11:09:07.872Z,44.43
2022-12-25T11:10:07.845Z,50.92
2022-12-25T11:11:07.897Z,46.46
2022-12-25T11:12:07.949Z,40.31
2022-12-25T11:13:08.005Z,39.53
2022-12-25T11:14:08.058Z,38.01
2022-12-25T11:15:08.085Z,38.83
2022-12-25T11:16:08.193Z,40.07
2022-12-25T11:17:08.199Z,36.32
2022-12-25T11:18:08.249Z,44.98
2022-12-25T11:19:08.305Z,42.10
2022-12-25T11:20:08.336Z,45.85
2022-12-25T11:21:08.393Z,47.18
2022-12-25T11:22:08.460Z,52.80
2022-12-25T11:23:08.498Z,46.22
2022-12-25T11:24:08.543Z,41.35
2022-12-25T11:25:08.596Z,39.70
2022-12-25T11:26:08.644Z,36.76
2022-12-25T11:27:08.711Z,33.67
2022-12-25T11:28:08.750Z,38.72
2022-12-25T11:29:08.796Z,34.60
2022-12-25T11:30:14.342Z,35.89
2022-12-25T11:31:09.876Z,36.37
2022-12-25T11:32:08.826Z,37.11
2022-12-25T11:33:08.820Z,37.54
2022-12-25T11:34:08.819Z,33.95
2022-12-25T11:35:08.793Z,39.31
2022-12-25T11:36:08.800Z,36.65
2022-12-25T11:37:08.781Z,32.04
2022-12-25T11:38:08.767Z,40.34
2022-12-25T11:39:08.799Z,33.67
2022-12-25T11:40:08.766Z,35.28
2022-12-25T11:41:08.734Z,34.45
2022-12-25T11:42:08.734Z,38.63
2022-12-25T11:43:08.723Z,33.45
2022-12-25T11:44:08.735Z,29.84
2022-12-25T11:45:08.753Z,32.64
2022-12-25T11:46:08.756Z,32.72
2022-12-25T11:47:08.693Z,32.01
2022-12-25T11:48:08.703Z,29.80
2022-12-25T11:49:08.667Z,33.47
2022-12-25T11:50:08.698Z,31.62
2022-12-25T11:51:08.667Z,30.88
2022-12-25T11:52:08.654Z,33.45
2022-12-25T11:53:08.664Z,31.93
2022-12-25T11:54:08.652Z,31.82
2022-12-25T11:55:08.612Z,31.80
2022-12-25T11:56:08.617Z,28.47
2022-12-25T11:57:08.612Z,29.32
2022-12-25T11:58:08.587Z,35.28
2022-12-25T11:59:11.480Z,32.64
2022-12-25T12:00:09.590Z,32.83
2022-12-25T12:01:08.575Z,32.87
2022-12-25T12:02:08.632Z,28.56
2022-12-25T12:03:08.708Z,26.22
2022-12-25T12:04:08.614Z,30.81
2022-12-25T12:05:08.525Z,27.70
2022-12-25T12:06:08.583Z,30.50
2022-12-25T12:07:08.511Z,26.89
2022-12-25T12:08:08.570Z,26.86
2022-12-25T12:09:08.497Z,27.74
2022-12-25T12:10:08.481Z,29.47
2022-12-25T12:11:08.473Z,29.88
2022-12-25T12:12:08.473Z,28.41
2022-12-25T12:13:08.484Z,25.96
2022-12-25T12:14:08.487Z,30.95
2022-12-25T12:15:08.445Z,26.96
2022-12-25T12:16:08.512Z,27.13
2022-12-25T12:17:08.426Z,25.00
2022-12-25T12:18:08.664Z,27.74
2022-12-25T12:19:08.402Z,30.09
2022-12-25T12:20:08.449Z,30.79
2022-12-25T12:21:08.392Z,29.44
2022-12-25T12:22:08.379Z,28.61
2022-12-25T12:23:08.370Z,31.01
2022-12-25T12:24:08.361Z,29.13
2022-12-25T12:25:08.378Z,28.09
2022-12-25T12:26:08.392Z,25.32
2022-12-25T12:27:08.342Z,26.57
2022-12-25T12:28:08.324Z,28.66
2022-12-25T12:29:08.330Z,32.15
2022-12-25T12:30:08.309Z,44.58
2022-12-25T12:31:08.331Z,36.13
2022-12-25T12:32:08.371Z,31.46
2022-12-25T12:33:08.285Z,36.95
2022-12-25T12:34:08.272Z,32.42
2022-12-25T12:35:08.263Z,33.69
2022-12-25T12:36:08.257Z,34.64
2022-12-25T12:37:08.269Z,33.91
2022-12-25T12:38:08.238Z,31.46
2022-12-25T12:39:08.232Z,30.79
2022-12-25T12:40:08.227Z,34.17
2022-12-25T12:41:08.226Z,33.23
2022-12-25T12:42:08.233Z,28.91
2022-12-25T12:43:08.191Z,26.52
2022-12-25T12:44:08.183Z,29.16
2022-12-25T12:45:08.188Z,26.53
2022-12-25T12:46:08.196Z,28.69
2022-12-25T12:47:08.175Z,29.44
2022-12-25T12:48:08.141Z,30.50
2022-12-25T12:49:08.142Z,32.26
2022-12-25T12:50:08.127Z,29.21